Time;durP1;ratioP1;P1;durP2;ratioP2;P2;SDS_P1;SDS_P2;PMS_P1;PMS_P2;Temp;Humidity;BMP_temperature;BMP_pressure;BME280_temperature;BME280_humidity;BME280_pressure;Samples;Min_cycle;Max_cycle;Signal;HPM_P1;HPM_P2
2022/01/13 10:58:47;;;;;;;209.30;76.77;;;;;;;0.99;100.00;100090.27;2236762;79;22614;-83
2022/01/13 11:01:48;;;;;;;135.22;57.30;;;;;;;1.00;100.00;100075.16;2188153;81;21044;-86
2022/01/13 11:04:49;;;;;;;71.60;38.10;;;;;;;1.06;100.00;100069.66;2188595;81;21025;-85
2022/01/13 11:07:50;;;;;;;53.90;28.92;;;;;;;1.17;100.00;100065.64;2188015;81;21033;-84
2022/01/13 11:10:52;;;;;;;68.67;34.08;;;;;;;1.28;100.00;100058.11;2188143;81;21549;-84
2022/01/13 11:13:54;;;;;;;86.82;37.23;;;;;;;1.41;100.00;100075.86;2188234;81;20980;-87
2022/01/13 11:16:55;;;;;;;56.23;28.92;;;;;;;1.53;100.00;100068.69;2188392;81;21627;-84
2022/01/13 11:19:56;;;;;;;48.30;25.75;;;;;;;1.62;100.00;100066.87;2188131;81;20945;-85
2022/01/13 11:22:57;;;;;;;42.13;23.98;;;;;;;1.69;100.00;100074.63;2188249;81;21536;-84
2022/01/13 11:25:58;;;;;;;45.73;25.60;;;;;;;1.75;100.00;100074.73;2188093;81;21029;-84
2022/01/13 11:29:06;;;;;;;39.88;23.80;;;;;;;1.82;100.00;100062.27;2188060;81;21108;-85
2022/01/13 11:32:03;;;;;;;36.25;23.02;;;;;;;1.86;100.00;100064.59;2186414;81;21045;-84
2022/01/13 11:35:05;;;;;;;42.90;24.27;;;;;;;1.89;100.00;100064.41;2168825;81;21032;-84
2022/01/13 11:38:07;;;;;;;50.48;26.15;;;;;;;1.96;100.00;100059.71;2188329;81;20989;-84
2022/01/13 11:41:09;;;;;;;34.90;21.00;;;;;;;1.95;100.00;100047.26;2188450;81;21046;-84
2022/01/13 11:44:10;;;;;;;42.48;23.00;;;;;;;1.99;100.00;100050.47;2188202;81;21001;-83
2022/01/13 11:47:11;;;;;;;42.90;26.17;;;;;;;1.99;100.00;100035.80;2188320;81;21377;-85
2022/01/13 11:50:18;;;;;;;41.92;24.05;;;;;;;2.01;100.00;100033.12;2188052;81;21013;-84
2022/01/13 11:53:15;;;;;;;46.98;26.35;;;;;;;2.04;100.00;100038.13;2187569;81;21093;-83
2022/01/13 11:56:16;;;;;;;42.98;25.15;;;;;;;2.06;100.00;100033.69;2187789;81;20997;-83
2022/01/13 11:59:17;;;;;;;45.23;24.72;;;;;;;2.11;100.00;100028.25;2188517;81;21016;-83
2022/01/13 12:02:19;;;;;;;42.33;24.80;;;;;;;2.17;100.00;100034.31;2188421;81;21521;-84
2022/01/13 12:05:20;;;;;;;40.65;23.77;;;;;;;2.18;100.00;100030.34;2188452;81;21013;-83
2022/01/13 12:08:21;;;;;;;39.48;22.93;;;;;;;2.18;100.00;100019.17;2187973;81;21067;-84
2022/01/13 12:11:22;;;;;;;39.00;22.25;;;;;;;2.17;100.00;100003.30;2187570;81;21008;-83
2022/01/13 12:14:31;;;;;;;46.37;24.75;;;;;;;2.15;100.00;100011.16;2187894;81;21057;-83
2022/01/13 12:17:34;;;;;;;48.78;24.67;;;;;;;2.17;100.00;99987.80;2186703;81;21599;-84
2022/01/13 12:20:40;;;;;;;47.65;25.80;;;;;;;2.19;100.00;100003.56;2187229;81;21061;-83
2022/01/13 12:23:34;;;;;;;39.40;23.10;;;;;;;2.23;100.00;99991.30;2186806;81;21085;-84
2022/01/13 12:26:36;;;;;;;43.98;25.55;;;;;;;2.24;100.00;99986.03;2187826;81;21005;-85
2022/01/13 12:29:37;;;;;;;44.65;25.30;;;;;;;2.27;100.00;99979.84;2187845;81;20942;-84
2022/01/13 12:32:38;;;;;;;51.10;27.10;;;;;;;2.28;100.00;99986.66;2187896;81;21061;-85
2022/01/13 12:35:42;;;;;;;45.38;25.08;;;;;;;2.29;100.00;99984.47;2188312;81;21072;-84
2022/01/13 12:38:43;;;;;;;47.50;25.05;;;;;;;2.25;100.00;99982.52;2187738;81;21005;-87
2022/01/13 12:41:45;;;;;;;45.45;25.72;;;;;;;2.24;100.00;99984.74;2187850;81;20977;-81
2022/01/13 12:48:05;;;;;;;49.05;26.45;;;;;;;2.26;100.00;99980.77;2187838;81;21025;-86
2022/01/13 12:51:07;;;;;;;45.70;26.70;;;;;;;2.26;100.00;99966.55;2187545;81;21569;-87
2022/01/13 12:54:08;;;;;;;50.80;26.57;;;;;;;2.28;100.00;99974.56;2187762;81;21056;-86
2022/01/13 12:57:09;;;;;;;40.60;21.45;;;;;;;2.28;100.00;99977.62;2187347;81;21576;-86
2022/01/13 13:00:10;;;;;;;52.62;24.15;;;;;;;2.27;100.00;99966.45;2187613;81;21488;-86
2022/01/13 13:03:11;;;;;;;42.50;23.00;;;;;;;2.31;100.00;99967.11;2187876;81;21048;-84
2022/01/13 13:06:12;;;;;;;47.90;24.47;;;;;;;2.34;100.00;99972.07;2187778;81;20978;-84
2022/01/13 13:09:13;;;;;;;48.20;24.80;;;;;;;2.39;100.00;99973.91;2187745;81;21527;-84
2022/01/13 13:12:24;;;;;;;50.92;26.12;;;;;;;2.42;100.00;99967.72;2187643;81;20962;-84
2022/01/13 13:18:18;;;;;;;38.92;21.40;;;;;;;2.43;100.00;99980.54;2187639;81;20989;-85
2022/01/13 13:21:20;;;;;;;51.25;25.62;;;;;;;2.42;100.00;99980.64;2187761;81;21016;-84
2022/01/13 13:24:22;;;;;;;41.08;21.35;;;;;;;2.42;100.00;99965.95;2187729;81;20985;-83
2022/01/13 13:27:23;;;;;;;44.75;22.75;;;;;;;2.43;100.00;99961.15;2187452;81;21005;-83
2022/01/13 13:30:24;;;;;;;48.65;23.90;;;;;;;2.45;100.00;99964.92;2187791;81;20974;-81
2022/01/13 13:33:25;;;;;;;41.08;21.27;;;;;;;2.45;100.00;99958.00;2188045;81;21543;-80
2022/01/13 13:36:29;;;;;;;51.88;24.63;;;;;;;2.42;100.00;99953.03;2187650;81;20989;-80
2022/01/13 13:39:30;;;;;;;34.45;20.72;;;;;;;2.46;100.00;99953.19;2187757;81;20973;-85
2022/01/13 13:42:31;;;;;;;44.35;21.87;;;;;;;2.46;100.00;99949.77;2187800;81;21009;-83
2022/01/13 13:45:32;;;;;;;46.70;24.60;;;;;;;2.46;100.00;99967.88;2187606;81;20989;-85
2022/01/13 13:48:33;;;;;;;40.30;22.17;;;;;;;2.47;100.00;99961.77;2187788;81;20989;-85
2022/01/13 13:51:34;;;;;;;41.73;23.52;;;;;;;2.45;100.00;99956.70;2187619;81;21021;-87
2022/01/13 13:54:35;;;;;;;40.10;24.27;;;;;;;2.47;100.00;99952.72;2187668;81;20997;-86
2022/01/13 13:57:40;;;;;;;42.75;22.95;;;;;;;2.46;100.00;99954.48;2181348;81;21030;-85
2022/01/13 14:00:38;;;;;;;46.65;23.35;;;;;;;2.47;100.00;99947.55;2169929;81;21508;-86
2022/01/13 14:03:39;;;;;;;46.68;24.20;;;;;;;2.46;100.00;99949.77;2171496;81;21481;-87
2022/01/13 14:06:40;;;;;;;41.40;22.62;;;;;;;2.47;100.00;99956.16;2171321;82;20966;-85
2022/01/13 14:09:41;;;;;;;42.30;23.67;;;;;;;2.46;100.00;99963.53;2171373;81;20975;-84
2022/01/13 14:12:42;;;;;;;49.65;25.72;;;;;;;2.45;100.00;99965.75;2171088;81;21002;-86
2022/01/13 14:15:43;;;;;;;37.93;21.50;;;;;;;2.47;100.00;99962.63;2171248;82;21015;-86
2022/01/13 14:18:43;;;;;;;34.65;19.62;;;;;;;2.49;100.00;99968.98;2170994;81;21527;-86
2022/01/13 14:21:44;;;;;;;43.33;25.27;;;;;;;2.52;100.00;99981.71;2171268;81;20934;-85
2022/01/13 14:24:45;;;;;;;45.70;23.87;;;;;;;2.50;100.00;99976.64;2170912;81;21070;-86
2022/01/13 14:27:46;;;;;;;39.27;22.22;;;;;;;2.50;100.00;99977.94;2171091;82;20978;-85
2022/01/13 14:30:47;;;;;;;37.05;19.90;;;;;;;2.47;100.00;99975.98;2171129;81;21604;-86
2022/01/13 14:33:48;;;;;;;46.13;23.22;;;;;;;2.44;100.00;99999.00;2171027;82;21065;-86
2022/01/13 14:36:49;;;;;;;43.13;22.82;;;;;;;2.44;100.00;100002.87;2171341;81;21037;-85
2022/01/13 14:39:50;;;;;;;42.35;23.38;;;;;;;2.40;100.00;100020.81;2171027;81;21034;-85
2022/01/13 14:42:51;;;;;;;46.60;23.10;;;;;;;2.36;100.00;100021.08;2171011;82;21041;-86
2022/01/13 14:45:52;;;;;;;34.03;18.37;;;;;;;2.36;100.00;100018.50;2171303;81;20929;-84
2022/01/13 14:48:53;;;;;;;44.18;23.60;;;;;;;2.32;100.00;100009.29;2171081;82;21029;-85
2022/01/13 14:51:54;;;;;;;37.67;21.57;;;;;;;2.28;100.00;100015.92;2171190;82;21030;-85
2022/01/13 14:54:55;;;;;;;41.45;23.27;;;;;;;2.29;100.00;100009.03;2171044;81;20989;-85
2022/01/13 14:57:56;;;;;;;43.45;23.27;;;;;;;2.28;100.00;100008.17;2176376;81;21013;-85
2022/01/13 15:00:56;;;;;;;35.73;19.62;;;;;;;2.30;100.00;100006.80;2187798;81;21005;-85
2022/01/13 15:03:57;;;;;;;40.03;22.17;;;;;;;2.30;100.00;99996.93;2187722;81;21574;-85
2022/01/13 15:07:00;;;;;;;46.02;23.92;;;;;;;2.30;100.00;99999.52;2187435;81;21097;-85
2022/01/13 15:10:02;;;;;;;41.30;24.15;;;;;;;2.27;100.00;99993.59;2170584;81;21030;-85
2022/01/13 15:13:03;;;;;;;40.50;23.65;;;;;;;2.26;100.00;100010.02;2187638;81;21060;-84
2022/01/13 15:16:04;;;;;;;36.13;20.88;;;;;;;2.28;100.00;99996.53;2187669;81;21213;-84
2022/01/13 15:19:09;;;;;;;42.40;22.87;;;;;;;2.26;100.00;99991.94;2188007;81;21052;-85
2022/01/13 15:22:07;;;;;;;36.23;18.87;;;;;;;2.28;100.00;99994.41;2187515;81;21025;-84
2022/01/13 15:25:08;;;;;;;47.08;24.95;;;;;;;2.30;100.00;99994.34;2187808;81;21058;-84
2022/01/13 15:28:09;;;;;;;39.98;23.77;;;;;;;2.31;100.00;99990.37;2187738;81;21512;-83
2022/01/13 15:31:10;;;;;;;34.20;19.42;;;;;;;2.36;100.00;99987.02;2187658;81;21057;-84
2022/01/13 15:34:11;;;;;;;40.88;22.90;;;;;;;2.36;100.00;99978.43;2187788;81;21021;-84
2022/01/13 15:37:11;;;;;;;45.03;23.07;;;;;;;2.36;100.00;99974.09;2187503;81;21013;-84
2022/01/13 15:40:13;;;;;;;43.70;23.75;;;;;;;2.38;100.00;99976.14;2187703;81;20950;-84
2022/01/13 15:43:14;;;;;;;41.28;23.05;;;;;;;2.40;100.00;99976.03;2187546;81;20989;-84
2022/01/13 15:46:15;;;;;;;46.88;23.70;;;;;;;2.41;100.00;99984.16;2187986;81;21065;-85
2022/01/13 15:49:16;;;;;;;39.33;22.87;;;;;;;2.45;100.00;99976.09;2188133;81;21004;-84
2022/01/13 15:52:17;;;;;;;41.23;23.40;;;;;;;2.48;100.00;99968.63;2187683;81;20993;-85
2022/01/13 15:55:17;;;;;;;40.65;23.52;;;;;;;2.48;100.00;99966.05;2187825;81;21496;-85
2022/01/13 15:58:18;;;;;;;37.17;23.22;;;;;;;2.48;100.00;99947.95;2181832;81;20994;-83
2022/01/13 16:01:19;;;;;;;38.85;22.05;;;;;;;2.50;100.00;99961.59;2171251;82;21041;-84
2022/01/13 16:04:20;;;;;;;34.45;21.12;;;;;;;2.50;100.00;99959.02;2171141;82;20994;-84
2022/01/13 16:07:21;;;;;;;34.85;20.82;;;;;;;2.50;100.00;99948.67;2171122;82;21100;-84
2022/01/13 16:10:22;;;;;;;40.78;22.90;;;;;;;2.49;100.00;99954.77;2171218;82;21536;-84
2022/01/13 16:13:23;;;;;;;30.95;19.95;;;;;;;2.47;100.00;99949.70;2171104;82;21065;-84
2022/01/13 16:16:23;;;;;;;39.78;22.32;;;;;;;2.48;100.00;99956.99;2171254;82;21137;-84
2022/01/13 16:19:24;;;;;;;35.88;21.35;;;;;;;2.47;100.00;99959.19;2171390;81;20958;-84
2022/01/13 16:22:25;;;;;;;39.90;22.07;;;;;;;2.47;100.00;99950.14;2171293;82;21006;-84
2022/01/13 16:25:26;;;;;;;34.13;20.15;;;;;;;2.48;100.00;99959.11;2171249;81;20950;-85
2022/01/13 16:28:27;;;;;;;37.88;19.95;;;;;;;2.47;100.00;99956.59;2171210;81;21058;-85
2022/01/13 16:31:27;;;;;;;38.70;21.77;;;;;;;2.46;100.00;99951.89;2171180;81;21559;-83
2022/01/13 16:34:28;;;;;;;35.63;19.40;;;;;;;2.49;100.00;99962.06;2171356;81;20958;-88
2022/01/13 16:37:29;;;;;;;35.48;22.05;;;;;;;2.51;100.00;99963.25;2171233;81;21052;-84
2022/01/13 16:40:30;;;;;;;33.45;20.55;;;;;;;2.51;100.00;99965.84;2171116;81;20919;-84
2022/01/13 16:43:31;;;;;;;39.63;22.17;;;;;;;2.54;100.00;99967.75;2171067;82;21056;-85
2022/01/13 16:46:32;;;;;;;33.05;19.15;;;;;;;2.56;100.00;99962.05;2171242;81;20970;-85
2022/01/13 16:49:36;;;;;;;37.67;22.27;;;;;;;2.59;100.00;99966.64;2171339;82;21569;-82
2022/01/13 16:52:36;;;;;;;37.98;20.17;;;;;;;2.60;100.00;99962.66;2170943;81;21038;-85
2022/01/13 16:55:37;;;;;;;39.78;22.93;;;;;;;2.58;100.00;99981.33;2171251;81;21044;-85
2022/01/13 16:58:37;;;;;;;39.55;23.02;;;;;;;2.59;100.00;99988.16;2171148;81;21050;-85
2022/01/13 17:01:38;;;;;;;43.87;25.23;;;;;;;2.60;100.00;99987.70;2171069;81;21009;-86
2022/01/13 17:04:39;;;;;;;36.98;21.93;;;;;;;2.61;100.00;99982.88;2171187;81;21012;-86
2022/01/13 17:07:40;;;;;;;37.15;21.85;;;;;;;2.61;100.00;99980.30;2171186;81;21030;-86
2022/01/13 17:10:41;;;;;;;33.48;19.57;;;;;;;2.61;100.00;99964.78;2171074;82;21068;-87
2022/01/13 17:13:42;;;;;;;33.70;18.98;;;;;;;2.60;100.00;99950.20;2171236;81;21635;-86
2022/01/13 17:16:42;;;;;;;29.02;17.65;;;;;;;2.63;100.00;99951.28;2171163;82;20985;-86
2022/01/13 17:19:43;;;;;;;36.03;21.00;;;;;;;2.63;100.00;99951.28;2171186;81;21081;-86
2022/01/13 17:22:44;;;;;;;30.70;19.25;;;;;;;2.62;100.00;99951.75;2171053;81;20942;-86
2022/01/13 17:25:45;;;;;;;41.98;22.55;;;;;;;2.60;100.00;99941.97;2171131;81;21374;-86
2022/01/13 17:28:48;;;;;;;34.18;19.65;;;;;;;2.60;100.00;99934.69;2170790;82;20939;-86
2022/01/13 17:31:49;;;;;;;34.65;19.75;;;;;;;2.59;100.00;99932.56;2171285;81;20994;-86
2022/01/13 17:34:49;;;;;;;35.85;19.80;;;;;;;2.60;100.00;99935.97;2171365;81;21493;-86
2022/01/13 17:37:55;;;;;;;36.93;20.23;;;;;;;2.59;100.00;99920.09;2171122;81;21073;-85
2022/01/13 17:40:53;;;;;;;27.55;17.45;;;;;;;2.59;100.00;99923.52;2170850;81;21009;-86
2022/01/13 17:43:54;;;;;;;33.88;18.10;;;;;;;2.63;100.00;99917.66;2171082;81;21046;-85
2022/01/13 17:46:54;;;;;;;30.95;18.98;;;;;;;2.62;100.00;99914.25;2171285;81;22044;-86
2022/01/13 17:49:55;;;;;;;29.18;18.85;;;;;;;2.65;100.00;99916.66;2171388;81;21009;-84
2022/01/13 17:52:58;;;;;;;37.45;19.12;;;;;;;2.67;100.00;99919.14;2171375;81;21030;-86
2022/01/13 17:55:59;;;;;;;30.80;18.73;;;;;;;2.66;100.00;99913.14;2171034;81;21521;-85
2022/01/13 17:58:59;;;;;;;33.38;18.92;;;;;;;2.66;100.00;99920.90;2177250;81;21084;-84
2022/01/13 18:02:00;;;;;;;30.50;17.92;;;;;;;2.67;100.00;99925.61;2187753;81;21499;-84
2022/01/13 18:05:01;;;;;;;31.42;18.70;;;;;;;2.67;100.00;99916.55;2187917;81;21043;-86
2022/01/13 18:08:02;;;;;;;31.12;19.82;;;;;;;2.65;100.00;99920.54;2187579;81;21013;-88
2022/01/13 18:11:03;;;;;;;35.98;18.85;;;;;;;2.66;100.00;99927.36;2187979;81;21536;-86
2022/01/13 18:14:07;;;;;;;27.93;17.17;;;;;;;2.67;100.00;99927.73;2187817;81;21536;-84
2022/01/13 18:17:06;;;;;;;30.43;17.75;;;;;;;2.71;100.00;99918.00;2187493;81;21081;-85
2022/01/13 18:20:07;;;;;;;29.45;17.00;;;;;;;2.73;100.00;99913.55;2187733;81;20993;-83
2022/01/13 18:23:08;;;;;;;31.55;16.75;;;;;;;2.73;100.00;99916.95;2187721;81;21432;-84
2022/01/13 18:26:10;;;;;;;31.95;18.23;;;;;;;2.74;100.00;99919.08;2187672;81;21101;-88
2022/01/13 18:29:10;;;;;;;28.77;17.35;;;;;;;2.74;100.00;99915.20;2187672;81;20962;-88
2022/01/13 18:32:11;;;;;;;28.05;17.05;;;;;;;2.75;100.00;99914.30;2187709;81;21008;-88
2022/01/13 18:35:13;;;;;;;24.35;15.03;;;;;;;2.75;100.00;99906.54;2187504;81;21010;-88
2022/01/13 18:38:14;;;;;;;24.52;14.07;;;;;;;2.74;100.00;99897.09;2187591;81;21108;-87
2022/01/13 18:41:15;;;;;;;27.48;16.75;;;;;;;2.75;100.00;99918.18;2187489;81;21539;-87
2022/01/13 18:44:16;;;;;;;26.30;16.20;;;;;;;2.76;100.00;99910.31;2187684;81;21034;-87
2022/01/13 18:47:17;;;;;;;20.68;13.03;;;;;;;2.78;100.00;99911.50;2187501;81;21013;-87
2022/01/13 18:50:18;;;;;;;21.93;13.10;;;;;;;2.76;100.00;99909.48;2187486;81;21088;-88
2022/01/13 18:53:19;;;;;;;30.82;15.55;;;;;;;2.77;100.00;99898.20;2188042;81;20950;-88
2022/01/13 18:56:21;;;;;;;27.70;15.93;;;;;;;2.78;100.00;99904.56;2187463;81;21045;-87
2022/01/13 18:59:21;;;;;;;26.20;15.20;;;;;;;2.80;100.00;99894.11;2187402;81;21093;-87
2022/01/13 19:02:22;;;;;;;28.67;15.90;;;;;;;2.80;100.00;99905.28;2187764;81;21020;-87
2022/01/13 19:05:23;;;;;;;26.93;16.50;;;;;;;2.80;100.00;99901.41;2187701;81;21012;-87
2022/01/13 19:08:24;;;;;;;28.20;15.98;;;;;;;2.84;100.00;99911.94;2187940;81;20942;-88
2022/01/13 19:11:25;;;;;;;29.90;17.48;;;;;;;2.83;100.00;99910.71;2187616;81;21092;-87
2022/01/13 19:14:26;;;;;;;28.65;16.67;;;;;;;2.86;100.00;99900.19;2187447;81;21038;-88
2022/01/13 19:20:33;;;;;;;28.38;16.57;;;;;;;2.89;100.00;99910.78;2095868;85;21052;-88
2022/01/13 19:23:33;;;;;;;30.32;16.37;;;;;;;2.93;100.00;99898.03;2096063;85;21119;-86
2022/01/13 19:26:34;;;;;;;25.95;15.95;;;;;;;2.93;100.00;99899.32;2095898;85;21068;-88
2022/01/13 19:29:35;;;;;;;28.77;16.35;;;;;;;2.93;100.00;99894.15;2096086;85;21560;-88
2022/01/13 19:32:36;;;;;;;28.40;17.17;;;;;;;2.92;100.00;99913.16;2095722;85;21071;-87
2022/01/13 19:35:37;;;;;;;27.27;18.27;;;;;;;2.88;100.00;99906.08;2095877;85;21201;-86
2022/01/13 19:38:39;;;;;;;30.45;17.62;;;;;;;2.90;100.00;99899.50;2095590;85;21548;-87
2022/01/13 19:41:40;;;;;;;28.73;16.00;;;;;;;2.88;100.00;99904.78;2095689;85;21108;-87
2022/01/13 19:44:40;;;;;;;31.70;16.37;;;;;;;2.88;100.00;99894.91;2095644;85;21076;-86
2022/01/13 19:47:43;;;;;;;27.52;18.30;;;;;;;2.89;100.00;99893.97;2095659;85;21165;-87
2022/01/13 19:50:44;;;;;;;26.25;16.10;;;;;;;2.89;100.00;99883.16;2095763;85;21631;-87
2022/01/13 19:53:48;;;;;;;28.95;17.35;;;;;;;2.89;100.00;99881.86;2095733;85;21084;-87
2022/01/13 19:56:47;;;;;;;26.30;15.70;;;;;;;2.90;100.00;99878.80;2115801;81;21064;-88
2022/01/13 19:59:48;;;;;;;27.00;16.73;;;;;;;2.89;100.00;99877.16;2180010;81;21070;-87
2022/01/13 20:02:49;;;;;;;27.27;17.77;;;;;;;2.84;100.00;99867.95;2171269;81;21036;-88
2022/01/13 20:05:50;;;;;;;29.05;17.52;;;;;;;2.87;100.00;99875.97;2171221;81;21501;-87
2022/01/13 20:08:50;;;;;;;26.70;16.80;;;;;;;2.90;100.00;99869.75;2171243;81;21065;-87
2022/01/13 20:11:55;;;;;;;31.15;18.52;;;;;;;2.91;100.00;99863.64;2171084;82;21588;-88
2022/01/13 20:14:55;;;;;;;29.75;18.35;;;;;;;2.90;100.00;99865.88;2170767;82;20985;-86
2022/01/13 20:17:56;;;;;;;32.08;18.10;;;;;;;2.90;100.00;99861.52;2170948;81;21597;-87
2022/01/13 20:20:56;;;;;;;24.47;15.30;;;;;;;2.88;100.00;99864.69;2171530;81;20974;-88
2022/01/13 20:24:03;;;;;;;34.63;17.17;;;;;;;2.89;100.00;99874.09;2171032;82;21101;-88
2022/01/13 20:27:02;;;;;;;26.52;17.00;;;;;;;2.87;100.00;99863.50;2170944;81;21390;-89
2022/01/13 20:30:06;;;;;;;28.77;17.20;;;;;;;2.87;100.00;99864.80;2171324;81;21070;-88
2022/01/13 20:33:09;;;;;;;30.97;18.67;;;;;;;2.88;100.00;99858.69;2171012;81;21043;-89
2022/01/13 20:36:09;;;;;;;29.48;17.10;;;;;;;2.87;100.00;99859.16;2170758;81;21050;-89
2022/01/13 20:39:14;;;;;;;31.02;17.98;;;;;;;2.86;100.00;99848.45;2170380;81;21683;-89
2022/01/13 20:42:18;;;;;;;29.95;15.60;;;;;;;2.86;100.00;99843.27;2160072;82;21041;-90
2022/01/13 20:45:18;;;;;;;25.17;15.45;;;;;;;2.85;100.00;99850.67;2170723;81;21581;-90
2022/01/13 20:48:21;;;;;;;27.82;15.05;;;;;;;2.84;100.00;99844.67;2169288;81;21088;-90
2022/01/13 20:51:23;;;;;;;32.08;17.60;;;;;;;2.84;100.00;99836.09;2169211;81;21088;-90
2022/01/13 20:54:26;;;;;;;28.45;16.37;;;;;;;2.83;100.00;99830.52;2170815;81;21034;-90
2022/01/13 20:57:31;;;;;;;28.17;19.35;;;;;;;2.83;100.00;99831.81;2170300;81;21118;-89
2022/01/13 21:00:32;;;;;;;30.15;17.92;;;;;;;2.87;100.00;99822.94;2181109;81;21017;-89
2022/01/13 21:03:33;;;;;;;29.85;17.42;;;;;;;2.91;100.00;99832.59;2187353;81;21495;-90
2022/01/13 21:06:34;;;;;;;24.50;15.10;;;;;;;2.91;100.00;99816.61;2187289;81;20926;-91
2022/01/13 21:09:44;;;;;;;25.88;15.15;;;;;;;2.93;100.00;99817.36;2187491;81;21543;-91
2022/01/13 21:12:38;;;;;;;32.42;17.70;;;;;;;2.93;100.00;99807.01;2184167;81;21488;-89
2022/01/13 21:15:41;;;;;;;25.52;15.78;;;;;;;2.94;100.00;99807.36;2130599;83;21687;-88
2022/01/13 21:18:42;;;;;;;32.30;17.90;;;;;;;2.95;100.00;99806.43;2130795;83;21159;-90
2022/01/13 21:21:44;;;;;;;26.57;17.62;;;;;;;2.92;100.00;99804.50;2130848;83;21571;-91
2022/01/13 21:24:47;;;;;;;26.27;16.25;;;;;;;2.90;100.00;99799.44;2107620;83;21568;-88
2022/01/13 21:27:48;;;;;;;30.48;17.05;;;;;;;2.91;100.00;99819.20;2131201;83;21113;-88
2022/01/13 21:30:55;;;;;;;32.05;18.20;;;;;;;2.92;100.00;99811.79;2131344;83;21024;-90
2022/01/13 21:33:56;;;;;;;30.90;16.12;;;;;;;2.94;100.00;99807.36;2130565;83;21112;-89
2022/01/13 21:36:56;;;;;;;26.70;14.53;;;;;;;2.94;100.00;99803.48;2130752;83;21106;-89
2022/01/13 21:39:56;;;;;;;24.40;14.28;;;;;;;2.97;100.00;99778.69;2131233;83;21009;-89
2022/01/13 21:43:00;;;;;;;23.67;15.40;;;;;;;2.95;100.00;99791.38;2131328;83;21104;-90
2022/01/13 21:46:01;;;;;;;24.00;14.87;;;;;;;2.91;100.00;99781.69;2131229;83;21028;-90
2022/01/13 21:49:01;;;;;;;29.12;16.00;;;;;;;2.91;100.00;99793.32;2131254;83;21009;-90
2022/01/13 21:52:05;;;;;;;26.87;15.05;;;;;;;2.91;100.00;99793.32;2144427;81;21544;-89
2022/01/13 21:55:06;;;;;;;27.15;16.90;;;;;;;2.94;100.00;99796.19;2187523;81;20965;-89
2022/01/13 21:58:10;;;;;;;24.02;15.20;;;;;;;2.91;100.00;99784.73;2187327;81;21071;-90
2022/01/13 22:01:09;;;;;;;27.87;14.87;;;;;;;2.89;100.00;99790.02;2186961;81;21686;-89
2022/01/13 22:04:13;;;;;;;26.68;15.30;;;;;;;2.89;100.00;99765.44;2187458;81;21061;-90
2022/01/13 22:07:14;;;;;;;28.12;15.53;;;;;;;2.87;100.00;99758.73;2187487;81;21139;-89
2022/01/13 22:10:17;;;;;;;25.50;15.80;;;;;;;2.87;100.00;99748.38;2187537;81;20985;-89
2022/01/13 22:13:17;;;;;;;28.47;16.95;;;;;;;2.87;100.00;99747.09;2187554;81;21017;-89
2022/01/13 22:16:18;;;;;;;33.83;17.20;;;;;;;2.83;100.00;99754.21;2187899;81;20997;-90
2022/01/13 22:19:19;;;;;;;30.25;17.85;;;;;;;2.85;100.00;99750.61;2187642;81;21016;-89
2022/01/13 22:22:25;;;;;;;26.68;14.98;;;;;;;2.85;100.00;99750.61;2187861;81;21559;-89
2022/01/13 22:25:22;;;;;;;28.98;17.42;;;;;;;2.84;100.00;99748.95;2187049;81;21537;-89
2022/01/13 22:28:23;;;;;;;23.70;13.38;;;;;;;2.82;100.00;99737.04;2187815;81;21005;-90
2022/01/13 22:31:24;;;;;;;28.83;16.48;;;;;;;2.79;100.00;99723.86;2187636;81;20978;-90
2022/01/13 22:34:25;;;;;;;30.25;17.37;;;;;;;2.81;100.00;99737.51;2187750;81;21053;-91
2022/01/13 22:37:26;;;;;;;27.52;16.10;;;;;;;2.82;100.00;99740.92;2187687;81;21100;-91
2022/01/13 22:40:26;;;;;;;28.75;16.75;;;;;;;2.80;100.00;99738.45;2187765;81;20958;-91
2022/01/13 22:43:29;;;;;;;32.55;16.90;;;;;;;2.80;100.00;99738.45;2187856;81;21552;-90
2022/01/13 22:46:29;;;;;;;28.00;16.87;;;;;;;2.81;100.00;99728.45;2187610;81;21024;-90
2022/01/13 22:49:30;;;;;;;32.63;16.30;;;;;;;2.81;100.00;99754.32;2187655;81;20965;-90
2022/01/13 22:52:31;;;;;;;33.40;18.23;;;;;;;2.81;100.00;99731.51;2187846;81;21064;-89
2022/01/13 22:55:32;;;;;;;26.25;15.38;;;;;;;2.83;100.00;99734.37;2187642;81;20990;-89
2022/01/13 22:58:35;;;;;;;32.53;18.05;;;;;;;2.85;100.00;99725.20;2187214;81;21025;-90
2022/01/13 23:01:35;;;;;;;33.78;18.00;;;;;;;2.83;100.00;99727.05;2174058;81;21168;-90
2022/01/13 23:04:36;;;;;;;26.80;14.70;;;;;;;2.86;100.00;99730.73;2171154;82;20974;-89
2022/01/13 23:07:37;;;;;;;28.42;15.83;;;;;;;2.87;100.00;99733.69;2171137;82;21570;-90
2022/01/13 23:10:38;;;;;;;30.55;16.65;;;;;;;2.85;100.00;99729.92;2171097;81;21035;-89
2022/01/13 23:13:50;;;;;;;30.77;16.45;;;;;;;2.86;100.00;99729.45;2171076;81;20927;-89
2022/01/13 23:23:25;;;;;;;31.75;16.40;;;;;;;2.81;100.00;99745.27;2171278;82;21045;-89
2022/01/13 23:26:27;;;;;;;28.65;16.60;;;;;;;2.79;100.00;99746.31;2171127;81;20942;-89
2022/01/13 23:29:31;;;;;;;28.45;15.60;;;;;;;2.79;100.00;99735.50;2171023;81;21484;-88
2022/01/13 23:32:31;;;;;;;27.55;15.03;;;;;;;2.74;100.00;99722.08;2170872;81;21053;-88
2022/01/13 23:35:33;;;;;;;31.97;18.23;;;;;;;2.74;100.00;99720.78;2170869;82;21661;-88
2022/01/13 23:38:34;;;;;;;29.27;16.93;;;;;;;2.73;100.00;99715.69;2170972;81;21029;-87
2022/01/13 23:41:42;;;;;;;26.20;15.35;;;;;;;2.72;100.00;99716.63;2171239;82;21604;-88
2022/01/13 23:44:45;;;;;;;30.05;15.75;;;;;;;2.71;100.00;99713.68;2170755;81;21024;-88
2022/01/13 23:47:40;;;;;;;28.73;16.40;;;;;;;2.71;100.00;99710.63;2170414;81;21556;-88
2022/01/13 23:50:40;;;;;;;38.42;17.75;;;;;;;2.66;100.00;99717.89;2171272;81;21018;-87
2022/01/13 23:53:41;;;;;;;33.60;16.85;;;;;;;2.65;100.00;99727.02;2171265;81;21569;-87
2022/01/13 23:56:42;;;;;;;30.35;16.80;;;;;;;2.64;100.00;99727.48;2171040;81;20966;-87
2022/01/13 23:59:43;;;;;;;32.85;18.45;;;;;;;2.62;100.00;99726.77;2171179;81;21632;-88
